Time;durP1;ratioP1;P1;durP2;ratioP2;P2;SDS_P1;SDS_P2;PMS_P1;PMS_P2;Temp;Humidity;BMP_temperature;BMP_pressure;BME280_temperature;BME280_humidity;BME280_pressure;Samples;Min_cycle;Max_cycle;Signal;HPM_P1;HPM_P2
2022/11/26 00:02:33;;;;;;;9.32;4.40;;;6.60;99.90;;;;;;5053262;28;20229;-87
2022/11/26 00:05:30;;;;;;;7.43;3.83;;;6.60;99.90;;;;;;5054046;28;20659;-86
2022/11/26 00:08:22;;;;;;;8.15;4.30;;;6.70;99.90;;;;;;5044179;28;20190;-87
2022/11/26 00:10:52;;;;;;;12.25;4.28;;;6.70;99.90;;;;;;5050103;28;20198;-86
2022/11/26 00:13:35;;;;;;;7.28;4.32;;;6.70;99.90;;;;;;5043693;28;20673;-87
2022/11/26 00:16:04;;;;;;;8.43;4.57;;;6.60;99.90;;;;;;5053212;28;20311;-85
2022/11/26 00:18:31;;;;;;;8.57;4.50;;;6.60;99.90;;;;;;5054698;28;20276;-86
2022/11/26 00:21:04;;;;;;;10.73;4.47;;;6.60;99.90;;;;;;5051136;28;20244;-86
2022/11/26 00:23:31;;;;;;;10.45;4.28;;;6.50;99.90;;;;;;5053859;28;20650;-86
2022/11/26 00:26:00;;;;;;;7.70;4.32;;;6.50;99.90;;;;;;5054377;28;21202;-87
2022/11/26 00:28:30;;;;;;;7.88;4.15;;;6.40;99.90;;;;;;5053280;28;20323;-87
2022/11/26 00:31:00;;;;;;;9.23;4.50;;;6.30;99.90;;;;;;5050825;28;20282;-86
2022/11/26 00:33:57;;;;;;;6.97;4.20;;;6.30;99.90;;;;;;5056909;28;20277;-86
2022/11/26 00:36:27;;;;;;;9.18;4.00;;;6.30;99.90;;;;;;5042977;28;20221;-87
2022/11/26 00:39:14;;;;;;;6.03;4.00;;;6.20;99.90;;;;;;5047964;28;20225;-86
2022/11/26 00:41:41;;;;;;;7.45;4.35;;;6.20;99.90;;;;;;5046417;28;20643;-86
2022/11/26 00:44:17;;;;;;;9.80;4.38;;;6.20;99.90;;;;;;5046558;28;20226;-88
2022/11/26 00:46:53;;;;;;;6.70;4.13;;;6.20;99.90;;;;;;5054392;28;20561;-86
2022/11/26 00:49:22;;;;;;;10.43;4.53;;;6.30;99.90;;;;;;5049546;28;20202;-87
2022/11/26 00:52:25;;;;;;;8.55;4.25;;;6.30;99.90;;;;;;5052174;28;20200;-86
2022/11/26 00:54:58;;;;;;;6.95;4.05;;;6.30;99.90;;;;;;5040177;28;20300;-87
2022/11/26 00:57:25;;;;;;;6.75;4.07;;;6.40;99.90;;;;;;5050104;28;20257;-87
2022/11/26 00:59:52;;;;;;;7.45;3.95;;;6.30;99.90;;;;;;5050874;28;20316;-87
2022/11/26 01:02:23;;;;;;;9.23;4.60;;;6.30;99.90;;;;;;5022646;28;20210;-87
2022/11/26 01:04:50;;;;;;;9.65;4.45;;;6.20;99.90;;;;;;5031874;28;20197;-86
2022/11/26 01:07:22;;;;;;;9.13;3.90;;;6.20;99.90;;;;;;5018375;28;20322;-86
2022/11/26 01:09:50;;;;;;;7.65;4.22;;;6.20;99.90;;;;;;5033574;28;20199;-86
2022/11/26 01:12:27;;;;;;;8.90;4.35;;;6.20;99.90;;;;;;5038028;28;20742;-88
2022/11/26 01:14:58;;;;;;;7.00;3.95;;;6.20;99.90;;;;;;5032453;28;20198;-86
2022/11/26 01:17:26;;;;;;;6.45;3.80;;;6.10;99.90;;;;;;5031841;28;20225;-88
2022/11/26 01:19:53;;;;;;;6.00;4.15;;;6.10;99.90;;;;;;5034022;28;20714;-87
2022/11/26 01:22:22;;;;;;;7.75;4.05;;;6.20;99.90;;;;;;5024551;28;20209;-86
2022/11/26 01:25:15;;;;;;;6.97;3.92;;;6.20;99.90;;;;;;5030603;28;20206;-86
2022/11/26 01:27:42;;;;;;;8.00;3.72;;;6.20;99.90;;;;;;5031977;28;20281;-91
2022/11/26 01:30:16;;;;;;;7.53;3.75;;;6.30;99.90;;;;;;5027596;28;20337;-86
2022/11/26 01:32:45;;;;;;;7.03;3.85;;;6.20;99.90;;;;;;5025790;28;20676;-87
2022/11/26 01:35:33;;;;;;;5.55;3.70;;;6.20;99.90;;;;;;5025507;28;20220;-87
2022/11/26 01:38:04;;;;;;;6.22;3.53;;;6.30;99.90;;;;;;5030635;28;20277;-87
2022/11/26 01:40:54;;;;;;;7.68;3.50;;;6.30;99.90;;;;;;5019790;28;20563;-87
2022/11/26 01:43:26;;;;;;;6.20;3.45;;;6.30;99.90;;;;;;5034014;28;20206;-87
2022/11/26 01:45:54;;;;;;;5.63;3.38;;;6.30;99.90;;;;;;5040504;28;20658;-87
2022/11/26 01:48:28;;;;;;;10.30;3.90;;;6.30;99.90;;;;;;5035895;28;20198;-87
2022/11/26 01:51:18;;;;;;;6.72;3.58;;;6.30;99.90;;;;;;5033520;28;20253;-86
2022/11/26 01:53:51;;;;;;;5.43;3.72;;;6.40;99.90;;;;;;5025634;28;20305;-87
2022/11/26 01:56:39;;;;;;;8.75;3.50;;;6.40;99.90;;;;;;5033984;28;20237;-87
2022/11/26 01:59:15;;;;;;;4.00;3.17;;;6.40;99.90;;;;;;5025089;28;20318;-86
2022/11/26 02:01:46;;;;;;;7.95;3.80;;;6.30;99.90;;;;;;5044874;28;20275;-86
2022/11/26 02:04:20;;;;;;;5.15;3.20;;;6.30;99.90;;;;;;5052031;28;20202;-86
2022/11/26 02:06:53;;;;;;;9.43;4.03;;;6.40;99.90;;;;;;5049818;28;20252;-87
2022/11/26 02:09:20;;;;;;;6.65;3.65;;;6.30;99.90;;;;;;5052307;28;20276;-87
2022/11/26 02:11:47;;;;;;;6.72;3.30;;;6.30;99.90;;;;;;5049904;28;20194;-86
2022/11/26 02:14:17;;;;;;;6.75;3.22;;;6.20;99.90;;;;;;5046794;28;20272;-87
2022/11/26 02:17:02;;;;;;;9.57;3.75;;;6.30;99.90;;;;;;5048639;28;20267;-86
2022/11/26 02:20:21;;;;;;;6.20;3.63;;;6.30;99.90;;;;;;5047852;28;20260;-87
2022/11/26 02:23:16;;;;;;;7.38;3.58;;;6.30;99.90;;;;;;5046953;28;20617;-86
2022/11/26 02:26:15;;;;;;;6.53;3.65;;;6.30;99.90;;;;;;5046105;28;20198;-86
2022/11/26 02:29:06;;;;;;;4.30;3.10;;;6.30;99.90;;;;;;5048119;28;20205;-86
2022/11/26 02:31:41;;;;;;;10.57;3.50;;;6.30;99.90;;;;;;5051329;28;20725;-87
2022/11/26 02:34:17;;;;;;;9.02;3.83;;;6.40;99.90;;;;;;5043555;28;20273;-86
2022/11/26 02:37:27;;;;;;;6.85;2.90;;;6.50;99.90;;;;;;5051684;28;20213;-87
2022/11/26 02:39:54;;;;;;;5.00;3.10;;;6.50;99.90;;;;;;5052359;28;20190;-87
2022/11/26 02:42:27;;;;;;;8.00;3.38;;;6.60;99.90;;;;;;5047644;28;20229;-86
2022/11/26 02:45:13;;;;;;;4.07;3.22;;;6.50;99.90;;;;;;5045434;28;20292;-87
2022/11/26 02:47:44;;;;;;;7.82;2.95;;;6.50;99.90;;;;;;5042701;28;20241;-86
2022/11/26 02:50:15;;;;;;;5.65;3.03;;;6.50;99.90;;;;;;5051331;28;20201;-87
2022/11/26 02:52:43;;;;;;;6.55;2.90;;;6.50;99.90;;;;;;5053627;28;20200;-86
2022/11/26 02:55:18;;;;;;;8.35;3.22;;;6.50;99.90;;;;;;5051736;28;20232;-86
2022/11/26 02:57:49;;;;;;;6.78;2.78;;;6.50;99.90;;;;;;5051886;28;20386;-86
2022/11/26 03:00:57;;;;;;;7.60;3.33;;;6.50;99.90;;;;;;5045761;28;20214;-86
2022/11/26 03:03:32;;;;;;;4.72;2.97;;;6.60;99.90;;;;;;5050001;28;20293;-88
2022/11/26 03:06:12;;;;;;;5.97;2.90;;;6.50;99.90;;;;;;5047892;28;20237;-86
2022/11/26 03:09:03;;;;;;;5.95;3.30;;;6.50;99.90;;;;;;5050830;28;20285;-87
2022/11/26 03:11:30;;;;;;;7.70;2.80;;;6.50;99.90;;;;;;5044115;28;20257;-86
2022/11/26 03:14:04;;;;;;;7.15;3.28;;;6.50;99.90;;;;;;5047178;28;20284;-86
2022/11/26 03:16:40;;;;;;;7.75;3.38;;;6.50;99.90;;;;;;5049303;28;20221;-86
2022/11/26 03:19:11;;;;;;;8.18;3.33;;;6.50;99.90;;;;;;5051863;28;20269;-86
2022/11/26 03:21:38;;;;;;;8.98;3.40;;;6.50;99.90;;;;;;5051822;28;20598;-86
2022/11/26 03:24:06;;;;;;;6.50;2.80;;;6.50;99.90;;;;;;5042603;28;20714;-85
2022/11/26 03:26:40;;;;;;;7.97;3.00;;;6.60;99.90;;;;;;5045198;28;20230;-86
2022/11/26 03:29:06;;;;;;;5.70;2.97;;;6.60;99.90;;;;;;5051993;28;20233;-86
2022/11/26 03:31:52;;;;;;;6.75;3.00;;;6.60;99.90;;;;;;5044591;28;20275;-86
2022/11/26 03:34:20;;;;;;;5.90;3.22;;;6.60;99.90;;;;;;5054092;28;20200;-87
2022/11/26 03:36:52;;;;;;;6.68;3.15;;;6.50;99.90;;;;;;5049567;28;20240;-87
2022/11/26 03:39:51;;;;;;;7.45;3.30;;;6.50;99.90;;;;;;5054369;28;20236;-87
2022/11/26 03:42:22;;;;;;;4.53;3.15;;;6.50;99.90;;;;;;5050408;28;20285;-86
2022/11/26 03:44:52;;;;;;;6.97;3.45;;;6.50;99.90;;;;;;5042456;28;20286;-87
2022/11/26 03:47:45;;;;;;;7.40;3.40;;;6.50;99.90;;;;;;5056079;28;20206;-87
2022/11/26 03:50:29;;;;;;;7.10;3.10;;;6.50;99.90;;;;;;5055672;28;20261;-87
2022/11/26 03:53:04;;;;;;;9.20;3.58;;;6.60;99.90;;;;;;5053677;28;20299;-86
2022/11/26 03:55:34;;;;;;;7.85;3.42;;;6.60;99.90;;;;;;5050677;28;20208;-86
2022/11/26 03:58:39;;;;;;;8.27;3.65;;;6.60;99.90;;;;;;5047065;28;20304;-87
2022/11/26 04:01:16;;;;;;;6.32;3.53;;;6.60;99.90;;;;;;5046085;28;20657;-87
2022/11/26 04:03:46;;;;;;;8.65;3.42;;;6.60;99.90;;;;;;5055715;28;20615;-86
2022/11/26 04:06:35;;;;;;;6.32;3.47;;;6.50;99.90;;;;;;5059043;28;20277;-88
2022/11/26 04:09:10;;;;;;;7.22;3.83;;;6.50;99.90;;;;;;5054870;28;20289;-87
2022/11/26 04:11:40;;;;;;;7.13;3.60;;;6.60;99.90;;;;;;5030092;28;20240;-87
2022/11/26 04:21:33;;;;;;;8.23;3.28;;;6.50;99.90;;;;;;5045044;28;20223;-88
2022/11/26 04:24:01;;;;;;;6.97;3.38;;;6.60;99.90;;;;;;5048667;28;20277;-88
2022/11/26 04:26:40;;;;;;;6.45;3.30;;;6.70;99.90;;;;;;5053855;28;20222;-87
2022/11/26 04:29:10;;;;;;;7.43;3.15;;;6.60;99.90;;;;;;5062775;28;20300;-87
2022/11/26 04:31:36;;;;;;;5.72;3.17;;;6.60;99.90;;;;;;5053470;28;20193;-87
2022/11/26 04:34:10;;;;;;;9.23;3.50;;;6.50;99.90;;;;;;5042505;28;20201;-87
2022/11/26 04:36:38;;;;;;;11.18;3.67;;;6.50;99.90;;;;;;5051908;28;20202;-87
2022/11/26 04:39:17;;;;;;;8.80;3.72;;;6.50;99.90;;;;;;5054070;28;20285;-87
2022/11/26 04:41:52;;;;;;;7.93;3.72;;;6.50;99.90;;;;;;5054112;28;20285;-87
2022/11/26 04:44:18;;;;;;;10.35;3.47;;;6.50;99.90;;;;;;5059615;28;20201;-87
2022/11/26 04:46:46;;;;;;;6.85;3.72;;;6.50;99.90;;;;;;5053436;28;20198;-87
2022/11/26 04:49:39;;;;;;;8.13;3.65;;;6.50;99.90;;;;;;5056572;28;20280;-87
2022/11/26 04:52:27;;;;;;;6.65;3.15;;;6.60;99.90;;;;;;5048751;28;20659;-87
2022/11/26 04:55:06;;;;;;;8.48;3.92;;;6.60;99.90;;;;;;5052154;28;20317;-87
2022/11/26 04:57:34;;;;;;;9.48;3.50;;;6.60;99.90;;;;;;5050742;28;20225;-87
2022/11/26 05:00:17;;;;;;;6.10;3.42;;;6.60;99.90;;;;;;5055320;28;20288;-87
2022/11/26 05:02:44;;;;;;;7.72;3.65;;;6.60;99.90;;;;;;5053288;28;20297;-87
2022/11/26 05:05:16;;;;;;;7.80;3.78;;;6.60;99.90;;;;;;5052900;28;20212;-87
2022/11/26 05:07:52;;;;;;;5.53;3.72;;;6.60;99.90;;;;;;5051905;28;20687;-87
2022/11/26 05:10:23;;;;;;;6.60;3.70;;;6.60;99.90;;;;;;5048578;28;20656;-87
2022/11/26 05:13:04;;;;;;;8.57;3.80;;;6.60;99.90;;;;;;5056704;28;20198;-87
2022/11/26 05:15:34;;;;;;;6.63;3.70;;;6.60;99.90;;;;;;5052442;28;20240;-87
2022/11/26 05:18:10;;;;;;;7.30;3.30;;;6.60;99.90;;;;;;5047953;28;20300;-87
2022/11/26 05:20:46;;;;;;;7.22;3.35;;;6.80;99.90;;;;;;5047422;28;20291;-87
2022/11/26 05:23:13;;;;;;;6.88;3.33;;;6.80;99.90;;;;;;5048930;28;20201;-88
2022/11/26 05:25:41;;;;;;;8.48;3.63;;;6.80;99.90;;;;;;5051979;28;20217;-87
2022/11/26 05:28:27;;;;;;;5.07;3.05;;;6.80;99.90;;;;;;5053529;28;20293;-88
2022/11/26 05:30:59;;;;;;;8.02;3.10;;;6.80;99.90;;;;;;5041390;28;20674;-87
2022/11/26 05:33:26;;;;;;;9.57;3.60;;;6.80;99.90;;;;;;5051871;28;20658;-88
2022/11/26 05:35:53;;;;;;;6.40;3.58;;;6.80;99.90;;;;;;5051330;28;20700;-86
2022/11/26 05:38:20;;;;;;;6.10;3.50;;;6.70;99.90;;;;;;5051026;28;20317;-86
2022/11/26 05:40:48;;;;;;;8.10;3.83;;;6.50;99.90;;;;;;5048594;28;20275;-86
2022/11/26 05:43:15;;;;;;;7.35;3.63;;;6.50;99.90;;;;;;5050750;28;20204;-87
2022/11/26 05:45:42;;;;;;;7.40;3.60;;;6.50;99.90;;;;;;5048436;28;20289;-85
2022/11/26 05:48:09;;;;;;;8.15;3.63;;;6.40;99.90;;;;;;5049602;28;20285;-86
2022/11/26 05:50:36;;;;;;;7.03;3.45;;;6.40;99.90;;;;;;5050812;28;20198;-87
2022/11/26 05:53:04;;;;;;;7.47;3.90;;;6.30;99.90;;;;;;5051523;28;20226;-86
2022/11/26 05:55:34;;;;;;;7.68;3.92;;;6.30;99.90;;;;;;5047675;28;20281;-86
2022/11/26 05:58:08;;;;;;;7.55;4.00;;;6.20;99.90;;;;;;5048855;28;20687;-87
2022/11/26 06:00:35;;;;;;;9.15;4.30;;;6.20;99.90;;;;;;5050438;28;20206;-87
2022/11/26 06:03:04;;;;;;;9.18;4.00;;;6.20;99.90;;;;;;5046490;28;20237;-86
2022/11/26 06:05:31;;;;;;;9.05;4.43;;;6.40;99.90;;;;;;5041937;28;20196;-86
2022/11/26 06:07:57;;;;;;;6.95;3.85;;;6.40;99.90;;;;;;5049784;28;20202;-86
2022/11/26 06:10:24;;;;;;;9.80;4.32;;;6.40;99.90;;;;;;5044964;28;20208;-87
2022/11/26 06:12:52;;;;;;;9.25;4.30;;;6.40;99.90;;;;;;5050771;28;20660;-87
2022/11/26 06:15:20;;;;;;;9.70;4.20;;;6.50;99.90;;;;;;5045126;28;20201;-86
2022/11/26 06:17:52;;;;;;;8.98;3.88;;;6.60;99.90;;;;;;5051801;28;20587;-86
2022/11/26 06:20:19;;;;;;;7.00;4.10;;;6.70;99.90;;;;;;5052759;28;20202;-87
2022/11/26 06:22:46;;;;;;;7.85;4.25;;;6.60;99.90;;;;;;5042912;28;20198;-86
2022/11/26 06:25:14;;;;;;;8.20;4.25;;;6.60;99.90;;;;;;5048345;28;20205;-86
2022/11/26 06:27:41;;;;;;;7.07;4.43;;;6.70;99.90;;;;;;5048638;28;20206;-86
2022/11/26 06:30:11;;;;;;;7.35;3.92;;;6.60;99.90;;;;;;5057815;28;20224;-86
2022/11/26 06:32:39;;;;;;;8.98;4.32;;;6.70;99.90;;;;;;5047591;28;20205;-86
2022/11/26 06:35:06;;;;;;;7.55;4.20;;;6.70;99.90;;;;;;5045626;28;20228;-86
2022/11/26 06:37:33;;;;;;;7.13;4.03;;;6.70;99.90;;;;;;5048020;28;20222;-86
2022/11/26 06:40:00;;;;;;;7.45;4.10;;;6.80;99.90;;;;;;5044913;28;20661;-87
2022/11/26 06:42:28;;;;;;;10.93;4.28;;;6.70;99.90;;;;;;5056148;28;20737;-86
2022/11/26 06:44:55;;;;;;;9.07;4.30;;;6.60;99.90;;;;;;5047672;28;20706;-86
2022/11/26 06:47:25;;;;;;;11.60;4.00;;;6.60;99.90;;;;;;5047449;28;20206;-85
2022/11/26 06:49:53;;;;;;;11.18;4.07;;;6.60;99.90;;;;;;5048165;28;20287;-85
2022/11/26 06:52:20;;;;;;;10.10;4.53;;;6.50;99.90;;;;;;5048994;28;20244;-86
2022/11/26 06:54:47;;;;;;;9.25;4.47;;;6.50;99.90;;;;;;5047651;28;20229;-86
2022/11/26 06:57:14;;;;;;;11.43;4.32;;;6.40;99.90;;;;;;5047817;28;20206;-86
2022/11/26 06:59:41;;;;;;;8.73;4.50;;;6.30;99.90;;;;;;5044893;28;20202;-87
2022/11/26 07:02:10;;;;;;;8.90;4.15;;;6.40;99.90;;;;;;5047008;28;20299;-87
2022/11/26 07:04:37;;;;;;;9.30;4.03;;;6.40;99.90;;;;;;5046309;28;20212;-86
2022/11/26 07:07:05;;;;;;;8.52;4.13;;;6.40;99.90;;;;;;5047124;28;20290;-87
2022/11/26 07:09:32;;;;;;;8.98;4.35;;;6.40;99.90;;;;;;5053136;28;20205;-86
2022/11/26 07:11:59;;;;;;;9.20;4.30;;;6.50;99.90;;;;;;5046431;28;20205;-86
2022/11/26 07:14:26;;;;;;;8.00;4.13;;;6.50;99.90;;;;;;5052238;28;20749;-86
2022/11/26 07:16:53;;;;;;;8.43;4.15;;;6.40;99.90;;;;;;5053204;28;20216;-86
2022/11/26 07:19:20;;;;;;;9.07;4.20;;;6.40;99.90;;;;;;5053622;28;20695;-87
2022/11/26 07:21:47;;;;;;;9.27;4.10;;;6.40;99.90;;;;;;5052200;28;20702;-87
2022/11/26 07:24:17;;;;;;;6.43;4.07;;;6.40;99.90;;;;;;5048268;28;20270;-85
2022/11/26 07:26:52;;;;;;;9.20;3.78;;;6.40;99.90;;;;;;5050407;28;20615;-85
2022/11/26 07:29:22;;;;;;;6.07;3.67;;;6.40;99.90;;;;;;5054312;28;20293;-88
2022/11/26 07:31:49;;;;;;;7.03;2.92;;;6.40;99.90;;;;;;5051676;28;20285;-86
2022/11/26 07:34:16;;;;;;;6.55;3.83;;;6.40;99.90;;;;;;5047442;28;20635;-86
2022/11/26 07:36:44;;;;;;;6.82;2.90;;;6.40;99.90;;;;;;5049691;28;20194;-87
2022/11/26 07:39:11;;;;;;;6.67;2.83;;;6.50;99.90;;;;;;5052814;28;20604;-87
2022/11/26 07:41:41;;;;;;;7.03;3.15;;;6.50;99.90;;;;;;5052495;28;20293;-86
2022/11/26 07:44:12;;;;;;;4.47;3.08;;;6.60;99.90;;;;;;5057866;28;20675;-85
2022/11/26 07:47:09;;;;;;;5.50;3.08;;;6.60;99.90;;;;;;5048578;28;20289;-87
2022/11/26 07:49:36;;;;;;;6.15;2.92;;;6.60;99.90;;;;;;5047842;28;20212;-88
2022/11/26 07:52:10;;;;;;;4.32;2.42;;;6.60;99.90;;;;;;5053414;28;20201;-85
2022/11/26 07:54:37;;;;;;;4.50;2.20;;;6.60;99.90;;;;;;5057290;28;20707;-88
2022/11/26 07:57:20;;;;;;;4.35;2.65;;;6.60;99.90;;;;;;5047899;28;20225;-85
2022/11/26 07:59:52;;;;;;;4.43;2.30;;;6.60;99.80;;;;;;5050849;28;20903;-85
2022/11/26 08:02:19;;;;;;;5.05;2.42;;;6.60;99.80;;;;;;5044715;28;20637;-86
2022/11/26 08:04:46;;;;;;;4.45;2.20;;;6.60;99.90;;;;;;5052374;28;20277;-86
2022/11/26 08:07:13;;;;;;;6.25;2.40;;;6.60;99.50;;;;;;5043779;28;20314;-85
2022/11/26 08:09:40;;;;;;;3.22;2.05;;;6.50;99.40;;;;;;5047730;28;20204;-85
2022/11/26 08:12:07;;;;;;;7.82;2.33;;;6.50;99.70;;;;;;5046957;28;20290;-86
2022/11/26 08:14:47;;;;;;;3.35;2.10;;;6.50;99.90;;;;;;5047948;28;20568;-86
2022/11/26 08:17:22;;;;;;;3.78;2.15;;;6.60;99.90;;;;;;5051788;28;20197;-88
2022/11/26 08:19:58;;;;;;;2.97;1.98;;;6.60;99.50;;;;;;5052815;28;20642;-86
2022/11/26 08:22:25;;;;;;;5.00;2.08;;;6.60;99.40;;;;;;5047677;28;20296;-85
2022/11/26 08:24:52;;;;;;;6.30;2.22;;;6.60;99.20;;;;;;5047655;28;20285;-85
2022/11/26 08:27:18;;;;;;;3.33;2.10;;;6.60;99.20;;;;;;5050257;28;20297;-85
2022/11/26 08:29:47;;;;;;;4.82;2.03;;;6.60;99.10;;;;;;5051353;28;20347;-85
2022/11/26 08:32:14;;;;;;;2.17;1.80;;;6.70;99.10;;;;;;5050395;28;20300;-85
2022/11/26 08:34:41;;;;;;;4.22;2.10;;;6.80;98.50;;;;;;5050385;28;20216;-87
2022/11/26 08:37:08;;;;;;;4.53;2.10;;;6.80;98.10;;;;;;5050491;28;20285;-85
2022/11/26 08:39:40;;;;;;;4.22;2.30;;;6.90;98.10;;;;;;5046744;28;20226;-86
2022/11/26 08:42:07;;;;;;;3.97;1.92;;;7.00;98.00;;;;;;5046646;28;20387;-86
2022/11/26 08:44:34;;;;;;;3.05;2.28;;;7.10;98.40;;;;;;5047361;28;20289;-86
2022/11/26 08:47:02;;;;;;;4.07;2.10;;;7.20;98.50;;;;;;5042033;28;20198;-87
2022/11/26 08:49:29;;;;;;;4.18;2.22;;;7.20;98.50;;;;;;5040916;28;20280;-87
2022/11/26 08:51:56;;;;;;;3.10;2.20;;;7.30;97.80;;;;;;5044402;28;20205;-86
2022/11/26 08:54:23;;;;;;;3.92;2.47;;;7.30;97.70;;;;;;5049922;28;20733;-87
2022/11/26 08:56:52;;;;;;;3.47;2.05;;;7.60;96.60;;;;;;5041991;28;20209;-87
2022/11/26 08:59:21;;;;;;;3.58;2.15;;;7.70;96.20;;;;;;5046239;28;20316;-89
2022/11/26 09:01:48;;;;;;;3.60;2.10;;;7.80;95.70;;;;;;5046057;28;20216;-86
2022/11/26 09:07:28;;;;;;;3.85;2.33;;;7.90;95.70;;;;;;5046521;28;20697;-89
2022/11/26 09:09:55;;;;;;;5.05;2.30;;;7.90;95.70;;;;;;5045672;28;20403;-89
2022/11/26 09:12:22;;;;;;;5.28;2.45;;;8.00;96.40;;;;;;5042418;28;20207;-89
2022/11/26 09:15:16;;;;;;;2.80;2.38;;;8.40;95.30;;;;;;5051897;28;20289;-88
2022/11/26 09:18:21;;;;;;;5.25;2.38;;;9.00;94.70;;;;;;5052969;28;20198;-88
2022/11/26 09:20:49;;;;;;;6.03;2.00;;;9.80;93.40;;;;;;5054089;28;20297;-89
2022/11/26 09:23:39;;;;;;;2.72;1.85;;;10.40;87.30;;;;;;5044894;28;20194;-89
2022/11/26 09:26:57;;;;;;;3.17;2.05;;;9.90;88.80;;;;;;5049296;28;20288;-90
2022/11/26 09:29:25;;;;;;;5.53;2.50;;;9.40;90.60;;;;;;5040864;28;20289;-90
2022/11/26 09:31:52;;;;;;;5.60;2.08;;;8.80;92.20;;;;;;5048370;28;20342;-89
2022/11/26 09:34:34;;;;;;;4.82;2.50;;;8.60;93.60;;;;;;5050116;28;20284;-89
2022/11/26 09:37:40;;;;;;;4.25;2.20;;;8.40;94.00;;;;;;5031791;28;20234;-89
2022/11/26 09:40:57;;;;;;;4.65;2.50;;;8.30;94.50;;;;;;5028608;28;20313;-87
2022/11/26 09:46:13;;;;;;;3.97;2.70;;;8.30;95.40;;;;;;5022207;28;20206;-88
2022/11/26 09:48:55;;;;;;;6.00;2.60;;;8.20;95.00;;;;;;5021741;28;20241;-88
2022/11/26 09:51:22;;;;;;;5.28;2.92;;;8.30;95.40;;;;;;5024390;28;20958;-88
2022/11/26 09:53:51;;;;;;;4.57;2.65;;;8.20;95.30;;;;;;5024397;28;20700;-88
2022/11/26 09:56:23;;;;;;;5.60;2.72;;;8.10;95.70;;;;;;5040288;28;20645;-88
2022/11/26 09:58:58;;;;;;;5.07;2.90;;;8.10;95.70;;;;;;5039647;28;20309;-88
2022/11/26 10:01:25;;;;;;;5.72;3.08;;;8.20;95.80;;;;;;5044883;28;20197;-88
2022/11/26 10:03:52;;;;;;;8.25;3.13;;;8.30;95.20;;;;;;5040889;28;20241;-88
2022/11/26 10:06:33;;;;;;;5.75;2.95;;;8.30;95.80;;;;;;5043021;28;20195;-88
2022/11/26 10:09:23;;;;;;;5.43;2.55;;;8.50;94.90;;;;;;5041094;28;20212;-88
2022/11/26 10:11:56;;;;;;;6.75;2.80;;;8.60;94.00;;;;;;5041702;28;20206;-87
2022/11/26 10:14:46;;;;;;;5.60;2.90;;;8.50;94.60;;;;;;5037562;28;20673;-88
2022/11/26 10:17:34;;;;;;;7.45;3.17;;;8.60;94.70;;;;;;5040409;28;20285;-88
2022/11/26 10:20:34;;;;;;;7.30;3.10;;;8.60;94.80;;;;;;5043390;28;20226;-88
2022/11/26 10:23:05;;;;;;;8.38;3.03;;;8.60;94.80;;;;;;5052032;28;20633;-88
2022/11/26 10:25:41;;;;;;;10.63;3.75;;;8.60;94.40;;;;;;5044637;28;20209;-88
2022/11/26 10:28:20;;;;;;;7.78;3.40;;;8.50;94.20;;;;;;5041501;28;20769;-89
2022/11/26 10:39:25;;;;;;;6.60;3.15;;;8.80;93.20;;;;;;5007656;28;20226;-88
2022/11/26 10:42:17;;;;;;;6.57;3.20;;;8.60;93.60;;;;;;4929363;29;20233;-87
2022/11/26 10:44:44;;;;;;;9.43;3.72;;;8.40;94.40;;;;;;4930508;29;20210;-88
2022/11/26 10:47:31;;;;;;;8.32;3.33;;;8.40;94.70;;;;;;4929176;29;20206;-88
2022/11/26 10:50:21;;;;;;;5.68;3.42;;;8.30;94.00;;;;;;4928797;29;20214;-89
2022/11/26 10:52:52;;;;;;;10.52;3.60;;;8.40;94.60;;;;;;4928531;29;20202;-88
2022/11/26 10:55:26;;;;;;;8.80;3.92;;;8.20;94.90;;;;;;4929333;29;20951;-88
2022/11/26 10:57:56;;;;;;;8.60;3.95;;;8.20;94.70;;;;;;4923925;29;20698;-88
2022/11/26 11:00:43;;;;;;;8.80;4.22;;;8.20;95.40;;;;;;4926466;29;20280;-88
2022/11/26 11:03:19;;;;;;;13.68;5.00;;;8.00;95.00;;;;;;4925401;29;20676;-88
2022/11/26 11:05:46;;;;;;;8.50;4.35;;;8.00;95.70;;;;;;4963784;28;20287;-88
2022/11/26 11:08:14;;;;;;;10.65;4.63;;;8.10;95.70;;;;;;4966375;28;20359;-88
2022/11/26 11:10:54;;;;;;;11.77;4.60;;;8.10;95.70;;;;;;4972165;28;20308;-89
2022/11/26 11:13:24;;;;;;;10.90;4.80;;;8.00;95.70;;;;;;4968537;28;20306;-89
2022/11/26 11:16:05;;;;;;;10.02;5.13;;;7.90;95.70;;;;;;4966006;28;20209;-88
2022/11/26 11:18:35;;;;;;;10.23;5.05;;;8.00;95.70;;;;;;4963267;28;20215;-88
2022/11/26 11:21:05;;;;;;;11.48;5.63;;;8.10;95.70;;;;;;4969570;28;20573;-89
2022/11/26 11:23:38;;;;;;;10.30;5.53;;;7.90;95.70;;;;;;4970312;28;20208;-93
2022/11/26 14:53:16;;;;;;;8.40;3.55;;;6.90;94.10;;;;;;4988918;28;20709;-95
2022/11/26 15:20:04;;;;;;;7.93;4.03;;;6.70;95.40;;;;;;5044161;28;20209;-95
2022/11/26 15:50:47;;;;;;;12.93;6.72;;;6.40;97.70;;;;;;4961294;28;20211;-93
2022/11/26 15:56:35;;;;;;;10.40;6.63;;;6.10;97.80;;;;;;4873742;29;20209;-96
2022/11/26 15:59:13;;;;;;;10.88;6.53;;;6.00;98.20;;;;;;4865792;29;20204;-96
2022/11/26 16:11:55;;;;;;;12.57;8.97;;;5.50;99.50;;;;;;4788537;29;20238;-94
2022/11/26 16:35:04;;;;;;;21.33;11.33;;;5.00;99.90;;;;;;4922650;29;20189;-94
2022/11/26 16:37:34;;;;;;;21.23;12.30;;;5.00;99.90;;;;;;4928897;29;20210;-95
2022/11/26 16:40:28;;;;;;;21.23;13.27;;;4.90;99.90;;;;;;4935714;28;20229;-94
2022/11/26 16:53:34;;;;;;;16.97;10.17;;;5.10;99.90;;;;;;4960191;29;20200;-95
2022/11/26 17:39:29;;;;;;;17.50;9.00;;;4.20;99.90;;;;;;5167098;22;20229;-92
2022/11/26 17:45:30;;;;;;;13.07;8.50;;;4.30;99.90;;;;;;5089312;28;20204;-92
2022/11/26 17:54:58;;;;;;;16.57;11.17;;;4.30;99.90;;;;;;5097307;28;20238;-93
2022/11/26 17:57:54;;;;;;;16.80;10.53;;;4.20;99.90;;;;;;5104314;28;20666;-90
2022/11/26 18:06:05;;;;;;;14.17;10.00;;;4.00;99.90;;;;;;5102629;28;20208;-93
2022/11/26 18:11:17;;;;;;;17.10;10.17;;;3.90;99.90;;;;;;5048067;28;20213;-92
2022/11/26 18:14:04;;;;;;;19.67;12.20;;;3.90;99.90;;;;;;5047216;28;20198;-94
2022/11/26 18:16:34;;;;;;;15.83;11.03;;;3.80;99.90;;;;;;5060425;28;20686;-94
2022/11/26 18:22:24;;;;;;;21.33;12.03;;;3.90;99.90;;;;;;5017895;28;20226;-95
2022/11/26 18:25:28;;;;;;;22.10;12.90;;;3.90;99.90;;;;;;5014540;28;20207;-93
2022/11/26 18:28:32;;;;;;;17.17;11.73;;;3.90;99.90;;;;;;5014086;28;20253;-93
2022/11/26 18:31:35;;;;;;;19.97;12.00;;;3.80;99.90;;;;;;5014193;28;20229;-94
2022/11/26 18:53:39;;;;;;;17.33;11.30;;;3.50;99.90;;;;;;5606036;22;20912;-89
2022/11/26 19:12:48;;;;;;;17.30;11.30;;;3.20;99.90;;;;;;4985873;28;20313;-94
2022/11/26 19:15:16;;;;;;;17.10;12.23;;;3.20;99.90;;;;;;4992792;28;20208;-95
2022/11/26 19:17:43;;;;;;;22.30;14.47;;;3.10;99.90;;;;;;4976774;28;20255;-94
2022/11/26 19:41:14;;;;;;;17.67;11.70;;;3.20;99.90;;;;;;5438781;22;20483;-93
2022/11/26 19:43:42;;;;;;;19.57;11.13;;;3.20;99.90;;;;;;5083131;28;20293;-92
2022/11/26 19:48:54;;;;;;;16.30;10.93;;;3.10;99.90;;;;;;4983741;28;20220;-92
2022/11/26 19:51:22;;;;;;;18.37;11.57;;;3.00;99.90;;;;;;4977149;28;20239;-92
2022/11/26 19:53:51;;;;;;;15.23;10.53;;;3.00;99.90;;;;;;4988160;28;20283;-93
2022/11/26 20:04:18;;;;;;;17.07;11.33;;;3.00;99.90;;;;;;5101639;22;20254;-92
2022/11/26 20:06:45;;;;;;;16.80;11.80;;;2.90;99.90;;;;;;5087986;28;20226;-92
2022/11/26 20:14:33;;;;;;;24.33;17.13;;;2.80;99.90;;;;;;5041081;28;20217;-94
2022/11/26 20:17:04;;;;;;;26.83;18.00;;;2.80;99.90;;;;;;5037414;28;20615;-94
2022/11/26 20:19:33;;;;;;;24.47;15.93;;;2.70;99.90;;;;;;5042709;28;20191;-94
2022/11/26 20:22:00;;;;;;;23.70;15.67;;;2.70;99.90;;;;;;5045096;28;20217;-94
2022/11/26 20:37:40;;;;;;;14.40;10.13;;;2.70;99.90;;;;;;5073367;28;20201;-93
2022/11/26 21:04:05;;;;;;;11.73;7.80;;;2.40;99.90;;;;;;5154025;22;20244;-92
2022/11/26 21:06:53;;;;;;;9.87;7.17;;;2.50;99.90;;;;;;5036911;28;20209;-90
2022/11/26 21:12:07;;;;;;;9.37;6.50;;;2.40;99.90;;;;;;5024769;28;20207;-93
2022/11/26 21:14:34;;;;;;;12.33;7.10;;;2.40;99.90;;;;;;5035469;28;20241;-94
2022/11/26 21:17:01;;;;;;;10.17;7.67;;;2.40;99.90;;;;;;5032673;28;20211;-94
2022/11/26 21:19:29;;;;;;;9.87;7.47;;;2.20;99.90;;;;;;5034387;28;20210;-94
2022/11/26 21:21:56;;;;;;;10.03;7.30;;;2.10;99.90;;;;;;5034344;28;20219;-94
2022/11/26 21:27:11;;;;;;;10.40;6.60;;;2.10;99.90;;;;;;5036473;28;20220;-94
2022/11/26 21:29:41;;;;;;;10.43;7.67;;;2.20;99.90;;;;;;5034363;28;20238;-94
2022/11/26 21:32:08;;;;;;;11.03;8.00;;;2.20;99.90;;;;;;5090738;22;20295;-94
2022/11/26 21:34:35;;;;;;;9.90;7.73;;;2.20;99.90;;;;;;5078939;28;20254;-95
2022/11/26 21:37:02;;;;;;;13.50;9.03;;;2.10;99.90;;;;;;5086152;28;20243;-92
2022/11/26 21:42:17;;;;;;;10.70;8.30;;;1.90;99.90;;;;;;5017306;28;20232;-94
2022/11/26 21:47:55;;;;;;;12.40;8.97;;;1.80;99.90;;;;;;4907356;29;20214;-94
2022/11/26 21:53:04;;;;;;;12.47;9.17;;;1.70;99.90;;;;;;4892436;29;20231;-94
2022/11/26 21:55:32;;;;;;;10.80;8.33;;;1.70;99.90;;;;;;4905492;29;20226;-93
2022/11/26 21:57:59;;;;;;;10.57;8.03;;;1.80;99.90;;;;;;4909052;29;20192;-94
2022/11/26 22:00:27;;;;;;;14.47;8.83;;;2.00;99.90;;;;;;4913699;29;20230;-93
2022/11/26 22:02:53;;;;;;;12.70;9.40;;;1.90;99.90;;;;;;4945030;28;20193;-94
2022/11/26 22:05:20;;;;;;;12.90;9.27;;;1.90;99.90;;;;;;4985878;28;20231;-94